createdAt,value
2022-10-20T00:08:07.418Z,10.10
2022-10-20T00:10:35.701Z,10.00
2022-10-20T00:13:04.286Z,9.90
2022-10-20T00:15:32.351Z,9.70
2022-10-20T00:18:01.806Z,10.50
2022-10-20T00:20:29.770Z,9.40
2022-10-20T00:22:57.740Z,9.30
2022-10-20T00:25:25.675Z,10.20
2022-10-20T00:27:53.670Z,9.10
2022-10-20T00:30:23.759Z,8.70
2022-10-20T00:32:53.566Z,9.90
2022-10-20T00:35:22.926Z,9.80
2022-10-20T00:37:50.868Z,10.10
2022-10-20T00:40:19.022Z,9.30
2022-10-20T00:42:47.399Z,9.40
2022-10-20T00:45:17.966Z,9.40
2022-10-20T00:47:50.052Z,9.60
2022-10-20T00:50:21.671Z,9.80
2022-10-20T00:52:52.351Z,9.80
2022-10-20T00:55:24.391Z,9.40
2022-10-20T00:57:54.420Z,9.60
2022-10-20T01:00:22.490Z,9.50
2022-10-20T01:02:51.653Z,9.50
2022-10-20T01:05:20.182Z,10.60
2022-10-20T01:07:48.199Z,9.70
2022-10-20T01:10:18.112Z,9.50
2022-10-20T01:12:52.838Z,9.70
2022-10-20T01:15:29.030Z,9.40
2022-10-20T01:18:05.559Z,9.60
2022-10-20T01:21:04.843Z,9.10
2022-10-20T01:23:54.952Z,9.50
2022-10-20T01:26:50.435Z,10.00
2022-10-20T01:29:26.267Z,9.60
2022-10-20T01:32:04.617Z,11.10
2022-10-20T01:34:40.114Z,9.40
2022-10-20T01:37:28.229Z,10.50
2022-10-20T01:40:12.315Z,9.30
2022-10-20T01:42:43.118Z,9.70
2022-10-20T01:45:15.965Z,10.10
2022-10-20T01:47:44.376Z,9.40
2022-10-20T01:50:15.556Z,10.40
2022-10-20T01:52:43.739Z,10.70
2022-10-20T01:55:14.675Z,10.30
2022-10-20T01:57:54.645Z,9.60
2022-10-20T02:00:24.218Z,9.40
2022-10-20T02:03:25.801Z,9.90
2022-10-20T02:06:04.229Z,9.50
2022-10-20T02:08:43.335Z,9.80
2022-10-20T02:11:19.506Z,9.80
2022-10-20T02:13:48.071Z,9.40
2022-10-20T02:18:50.249Z,9.50
2022-10-20T02:21:18.739Z,10.00
2022-10-20T02:23:50.654Z,9.70
2022-10-20T02:26:21.631Z,9.40
2022-10-20T02:28:55.613Z,9.40
2022-10-20T02:31:26.005Z,10.50
2022-10-20T02:33:55.803Z,10.20
2022-10-20T02:36:27.829Z,9.70
2022-10-20T02:38:56.151Z,10.10
2022-10-20T02:41:24.397Z,10.20
2022-10-20T02:43:52.369Z,10.20
2022-10-20T02:46:20.322Z,9.00
2022-10-20T02:48:49.713Z,9.80
2022-10-20T02:51:18.696Z,9.90
2022-10-20T02:53:46.976Z,9.70
2022-10-20T02:56:14.910Z,10.20
2022-10-20T02:58:42.841Z,9.60
2022-10-20T03:01:10.886Z,9.60
2022-10-20T03:03:38.832Z,10.80
2022-10-20T03:06:13.548Z,8.50
2022-10-20T03:08:41.802Z,9.60
2022-10-20T03:11:10.284Z,10.50
2022-10-20T03:13:38.225Z,10.50
2022-10-20T03:16:06.511Z,10.10
2022-10-20T03:18:34.486Z,9.70
2022-10-20T03:21:02.555Z,9.70
2022-10-20T03:23:31.887Z,9.60
2022-10-20T03:26:03.615Z,9.60
2022-10-20T03:28:31.674Z,10.70
2022-10-20T03:31:00.081Z,9.70
2022-10-20T03:33:28.270Z,9.40
2022-10-20T03:35:56.233Z,10.40
2022-10-20T03:38:24.546Z,9.60
2022-10-20T03:40:54.022Z,9.50
2022-10-20T03:45:50.866Z,9.60
2022-10-20T03:48:18.878Z,10.00
2022-10-20T03:50:46.829Z,9.90
2022-10-20T03:53:15.421Z,10.00
2022-10-20T03:55:43.413Z,9.60
2022-10-20T03:58:12.693Z,9.70
2022-10-20T04:00:40.668Z,10.10
2022-10-20T04:03:08.594Z,9.60
2022-10-20T04:05:36.547Z,9.70
2022-10-20T04:08:04.823Z,9.70
2022-10-20T04:10:32.861Z,10.00
2022-10-20T04:13:01.405Z,9.70
2022-10-20T04:15:30.948Z,10.70
2022-10-20T04:17:59.404Z,9.70
2022-10-20T04:20:27.625Z,9.80
2022-10-20T04:22:55.590Z,9.70
2022-10-20T04:25:23.577Z,9.90
2022-10-20T04:27:51.809Z,9.80
2022-10-20T04:30:20.037Z,9.60
2022-10-20T04:32:49.509Z,9.80
2022-10-20T04:35:17.774Z,9.90
2022-10-20T04:37:45.982Z,9.80
2022-10-20T04:40:14.058Z,9.80
2022-10-20T04:42:42.100Z,9.80
2022-10-20T04:45:11.061Z,9.60
2022-10-20T04:47:39.522Z,9.60
2022-10-20T04:50:10.440Z,9.70
2022-10-20T04:52:38.598Z,9.50
2022-10-20T04:55:07.400Z,9.40
2022-10-20T04:57:35.718Z,9.80
2022-10-20T05:00:04.034Z,9.60
2022-10-20T05:02:32.058Z,9.10
2022-10-20T05:04:59.970Z,10.10
2022-10-20T05:07:31.944Z,9.60
2022-10-20T05:09:59.912Z,10.40
2022-10-20T05:12:28.657Z,9.80
2022-10-20T05:14:56.629Z,10.70
2022-10-20T05:17:24.609Z,10.80
2022-10-20T05:19:52.608Z,10.10
2022-10-20T05:22:20.558Z,10.30
2022-10-20T05:24:49.871Z,10.30
2022-10-20T05:27:17.899Z,9.70
2022-10-20T05:29:45.857Z,11.00
2022-10-20T05:32:13.846Z,9.80
2022-10-20T05:34:41.805Z,9.70
2022-10-20T05:37:09.749Z,10.40
2022-10-20T05:39:37.715Z,9.90
2022-10-20T05:42:07.137Z,9.70
2022-10-20T05:44:35.089Z,10.60
2022-10-20T05:47:03.108Z,9.80
2022-10-20T05:49:31.176Z,10.20
2022-10-20T05:51:59.128Z,10.00
2022-10-20T05:54:27.070Z,10.40
2022-10-20T05:59:24.741Z,9.70
2022-10-20T06:01:52.896Z,9.70
2022-10-20T06:04:23.487Z,10.30
2022-10-20T06:09:20.580Z,9.80
2022-10-20T06:11:48.670Z,11.00
2022-10-20T06:14:17.294Z,10.40
2022-10-20T06:16:47.193Z,9.90
2022-10-20T06:19:15.144Z,10.10
2022-10-20T06:24:16.558Z,10.60
2022-10-20T06:26:45.504Z,10.00
2022-10-20T06:29:15.785Z,11.00
2022-10-20T06:31:47.273Z,10.40
2022-10-20T06:34:16.963Z,11.00
2022-10-20T06:36:46.158Z,10.10
2022-10-20T06:39:17.384Z,11.10
2022-10-20T06:41:48.539Z,11.20
2022-10-20T06:44:16.482Z,10.40
2022-10-20T06:49:15.092Z,10.30
2022-10-20T06:51:43.026Z,10.30
2022-10-20T06:54:10.988Z,10.50
2022-10-20T06:56:40.909Z,10.30
2022-10-20T06:59:09.111Z,10.90
2022-10-20T07:01:39.107Z,11.10
2022-10-20T07:04:09.156Z,10.60
2022-10-20T07:06:40.148Z,10.90
2022-10-20T07:09:09.720Z,10.60
2022-10-20T07:11:37.773Z,11.20
2022-10-20T07:14:06.041Z,10.70
2022-10-20T07:16:35.988Z,11.10
2022-10-20T07:19:05.682Z,11.50
2022-10-20T07:21:38.432Z,10.80
2022-10-20T07:24:11.318Z,10.90
2022-10-20T07:26:41.453Z,12.10
2022-10-20T07:29:10.598Z,12.10
2022-10-20T07:31:40.262Z,12.10
2022-10-20T07:34:27.190Z,11.40
2022-10-20T07:36:56.582Z,11.60
2022-10-20T07:39:26.666Z,11.60
2022-10-20T07:41:54.656Z,11.70
2022-10-20T07:44:22.722Z,11.70
2022-10-20T07:52:07.002Z,11.30
2022-10-20T07:54:36.366Z,13.00
2022-10-20T07:57:04.641Z,13.30
2022-10-20T07:59:32.593Z,12.50
2022-10-20T08:02:00.688Z,13.10
2022-10-20T08:04:31.342Z,12.60
2022-10-20T08:09:28.192Z,12.90
2022-10-20T08:11:57.617Z,13.00
2022-10-20T08:14:27.659Z,13.40
2022-10-20T08:19:27.112Z,13.20
2022-10-20T08:21:55.112Z,13.30
2022-10-20T08:24:26.003Z,13.50
2022-10-20T08:29:23.740Z,13.70
2022-10-20T08:31:51.690Z,14.40
2022-10-20T08:34:19.662Z,13.70
2022-10-20T08:39:15.901Z,14.00
2022-10-20T08:42:07.040Z,14.20
2022-10-20T08:44:37.620Z,14.30
2022-10-20T08:47:14.315Z,14.60
2022-10-20T08:49:42.353Z,14.60
2022-10-20T08:52:14.033Z,14.60
2022-10-20T08:54:42.273Z,14.70
2022-10-20T08:57:22.866Z,14.70
2022-10-20T08:59:55.134Z,15.10
2022-10-20T09:02:23.877Z,14.90
2022-10-20T09:04:55.468Z,15.50
2022-10-20T09:07:29.246Z,15.20
2022-10-20T09:10:05.194Z,15.30
2022-10-20T09:12:34.576Z,15.50
2022-10-20T09:15:04.400Z,15.60
2022-10-20T09:17:32.776Z,15.70
2022-10-20T09:20:02.368Z,16.10
2022-10-20T15:40:30.266Z,17.30
2022-10-20T16:02:54.403Z,17.00
2022-10-20T16:10:23.203Z,16.90
2022-10-20T16:12:51.328Z,16.80
2022-10-20T16:15:19.480Z,16.70
2022-10-20T16:20:20.983Z,16.60
2022-10-20T16:22:50.339Z,16.70
2022-10-20T16:25:18.472Z,16.70
2022-10-20T16:27:46.524Z,16.60
2022-10-20T16:30:16.432Z,16.50
2022-10-20T16:32:44.396Z,16.40
2022-10-20T16:35:12.439Z,16.50
2022-10-20T16:37:40.659Z,16.50
2022-10-20T16:40:11.259Z,16.30
2022-10-20T16:42:39.237Z,16.60
2022-10-20T16:45:08.568Z,16.30
2022-10-20T16:47:37.035Z,16.40
2022-10-20T16:50:05.877Z,16.30
2022-10-20T16:52:33.914Z,16.60
2022-10-20T16:55:01.890Z,16.30
2022-10-20T16:57:38.169Z,16.10
2022-10-20T17:00:08.530Z,16.10
2022-10-20T17:02:37.160Z,16.20
2022-10-20T17:05:09.139Z,16.30
2022-10-20T17:07:38.259Z,16.00
2022-10-20T17:10:07.588Z,16.10
2022-10-20T17:12:37.013Z,16.10
2022-10-20T17:15:05.644Z,16.20
2022-10-20T17:17:33.579Z,16.00
2022-10-20T17:20:01.570Z,16.10
2022-10-20T17:22:29.551Z,16.10
2022-10-20T17:24:57.695Z,16.10
2022-10-20T17:27:25.658Z,16.10
2022-10-20T17:29:55.006Z,16.40
2022-10-20T17:32:23.018Z,16.40
2022-10-20T17:34:50.972Z,15.90
2022-10-20T17:37:18.953Z,15.60
2022-10-20T17:42:15.280Z,16.10
2022-10-20T17:44:43.288Z,15.90
2022-10-20T17:52:09.361Z,15.50
2022-10-20T17:54:37.340Z,15.50
2022-10-20T17:59:38.305Z,15.90
2022-10-20T18:02:16.855Z,15.70
2022-10-20T18:04:44.821Z,15.60
2022-10-20T18:07:12.788Z,15.70
2022-10-20T18:09:40.821Z,15.70
2022-10-20T18:12:08.917Z,15.80
2022-10-20T18:14:37.179Z,15.70
2022-10-20T18:19:34.764Z,15.60
2022-10-20T18:22:02.719Z,15.60
2022-10-20T18:24:30.756Z,15.60
2022-10-20T18:29:27.151Z,15.50
2022-10-20T18:31:55.072Z,15.50
2022-10-20T18:34:23.023Z,15.40
2022-10-20T18:36:54.900Z,15.60
2022-10-20T18:39:23.170Z,15.60
2022-10-20T18:41:54.419Z,15.60
2022-10-20T18:44:23.757Z,15.60
2022-10-20T18:49:24.603Z,15.60
2022-10-20T18:51:54.162Z,15.60
2022-10-20T18:54:23.635Z,15.60
2022-10-20T18:59:19.870Z,15.60
2022-10-20T19:04:17.307Z,15.70
2022-10-20T19:06:46.687Z,15.60
2022-10-20T19:09:17.952Z,15.60
2022-10-20T19:11:47.155Z,15.60
2022-10-20T19:14:15.964Z,15.70
2022-10-20T19:16:46.184Z,15.70
2022-10-20T19:19:14.520Z,15.70
2022-10-20T19:21:42.545Z,15.60
2022-10-20T19:24:13.205Z,15.30
2022-10-20T19:26:52.555Z,15.20
2022-10-20T19:29:31.287Z,15.20
2022-10-20T19:32:01.498Z,15.20
2022-10-20T19:34:31.514Z,15.30
2022-10-20T19:39:29.876Z,15.30
2022-10-20T19:42:01.590Z,15.30
2022-10-20T19:44:30.305Z,15.30
2022-10-20T19:49:27.562Z,15.30
2022-10-20T19:51:55.685Z,15.40
2022-10-20T19:54:26.221Z,15.50
2022-10-20T19:59:23.938Z,15.40
2022-10-20T20:01:52.687Z,15.50
2022-10-20T20:04:21.092Z,16.30
2022-10-20T20:09:17.500Z,15.40
2022-10-20T20:11:45.466Z,15.30
2022-10-20T20:14:16.008Z,16.00
2022-10-20T20:16:46.832Z,15.30
2022-10-20T20:19:16.745Z,15.30
2022-10-20T20:21:45.876Z,15.50
2022-10-20T20:24:14.745Z,15.90
2022-10-20T20:26:44.426Z,15.30
2022-10-20T20:29:12.421Z,15.60
2022-10-20T20:31:40.864Z,15.30
2022-10-20T20:34:10.250Z,15.10
2022-10-20T20:36:39.371Z,15.20
2022-10-20T20:39:08.178Z,15.30
2022-10-20T20:41:36.309Z,15.40
2022-10-20T20:44:08.259Z,15.80
2022-10-20T20:46:37.017Z,14.90
2022-10-20T20:49:05.479Z,15.00
2022-10-20T20:51:34.792Z,15.00
2022-10-20T20:54:03.603Z,15.10
2022-10-20T20:56:31.583Z,15.50
2022-10-20T20:58:59.582Z,15.10
2022-10-20T21:01:29.248Z,15.00
2022-10-20T21:03:59.186Z,15.50
2022-10-20T21:06:33.923Z,15.20
2022-10-20T21:09:12.964Z,14.90
2022-10-20T21:14:11.078Z,14.90
2022-10-20T21:16:39.387Z,15.20
2022-10-20T21:19:09.556Z,15.20
2022-10-20T21:21:39.020Z,15.10
2022-10-20T21:24:07.549Z,16.00
2022-10-20T21:26:37.669Z,15.00
2022-10-20T21:29:06.003Z,15.10
2022-10-20T21:31:34.052Z,15.20
2022-10-20T21:34:04.580Z,15.00
2022-10-20T21:36:34.710Z,14.90
2022-10-20T21:39:03.631Z,15.40
2022-10-20T21:41:33.593Z,15.00
2022-10-20T21:44:05.683Z,15.00
2022-10-20T21:46:35.809Z,15.00
2022-10-20T21:49:05.780Z,15.00
2022-10-20T21:51:35.057Z,15.60
2022-10-20T21:54:04.994Z,14.90
2022-10-20T21:56:36.315Z,14.70
2022-10-20T21:59:06.345Z,14.80
2022-10-20T22:01:34.543Z,14.70
2022-10-20T22:04:02.553Z,14.60
2022-10-20T22:06:30.479Z,15.60
2022-10-20T22:09:00.008Z,14.50
2022-10-20T22:11:30.349Z,14.50
2022-10-20T22:13:58.988Z,15.00
2022-10-20T22:16:29.921Z,14.50
2022-10-20T22:18:58.317Z,15.20
2022-10-20T22:21:26.756Z,14.50
2022-10-20T22:23:55.453Z,14.40
2022-10-20T22:26:25.713Z,14.50
2022-10-20T22:28:53.815Z,14.90
2022-10-20T22:31:21.792Z,14.60
2022-10-20T22:33:51.596Z,14.40
2022-10-20T22:38:49.113Z,14.50
2022-10-20T22:41:17.131Z,14.60
2022-10-20T22:43:45.138Z,14.40
2022-10-20T22:46:13.159Z,15.00
2022-10-20T22:48:41.111Z,14.50
2022-10-20T22:51:11.645Z,14.40
2022-10-20T22:53:40.035Z,14.30
2022-10-20T22:56:10.026Z,14.50
2022-10-20T22:58:38.074Z,14.30
2022-10-20T23:01:10.263Z,14.20
2022-10-20T23:03:38.326Z,14.20
2022-10-20T23:06:13.197Z,14.10
2022-10-20T23:08:43.245Z,14.00
